Harrisburg, PA (17123)

6:18 AM EDT on September 05, 2015 (GMT -0400)
APRSWXNET | | Change Station
CLOSE
Current Station
Personal Weather Station
Location: New Cumberland, PA
Elevation: 426 ft
Nearby Weather Stations

Elev 426 ft 40.23 °N, 76.88 °W | Updated 31 minutes ago

Overcast
Overcast
71 °F
Feels Like 71 °F
N
0
Wind Variable Wind from WNW
Gusts 1.0 mph

Today
High -- | Low -- °F
--% Chance of Precip.
Yesterday
High -- | Low -- °F
Precip. -- in
6:38 AM 7:33 PM
Waning Gibbous, 50% visible
Pressure 30.22 in
Visibility 10.0 miles
Clouds Overcast 2800 ft
Dew Point 66 °F
Humidity 85%
Rainfall in
Snow Depth Not available.
UV 0 out of 12
Pollen 7.80 out of 12
Air Quality Not available.
Flu Activity Not available.
METAR KMDT 050956Z 09009KT 10SM OVC028 22/18 A3022 RMK AO2 SLP231 T02220183
Pressure 30.22 in
Visibility 10.0 miles
Clouds Overcast 2800 ft
Dew Point 66 °F
Humidity 85%
Rainfall in
Snow Depth Not available.
UV 0 out of 12
Pollen 7.80 out of 12
Air Quality Not available.
Flu Activity Not available.
METAR KMDT 050956Z 09009KT 10SM OVC028 22/18 A3022 RMK AO2 SLP231 T02220183

10-Day Weather Forecast

×

Almanac

Astronomy

Sep. 05, 2015 Rise Set
Actual Time
Civil Twilight
Nautical Twilight
Astronomical Twilight
Moon
Length of Visible Light
Length of Day
Tomorrow will be .
, % of the Moon is Illuminated

Today's Extremes

State Highs State Lows

Community

WunderPhotos

Upload Photos

1,852,440 photos uploaded!

WunderBlogs® & News

Nearby

Air Quality

  Air Quality AQ Index Pollutant
Not available.

Snow Depth

Station Depth Elevation

Earthquake Activity

City Distance Mag. Time & Date
Minimum magnitude displayed is 2.5.

Coastal Water Temperatures

Place Temperature

Stations

Nearby Weather Stations

Station Location Temp. Windchill Dew Point Humidity Wind Precip. Elev Updated Type